createdAt,value
2023-02-16T00:00:46.511Z,9.30
2023-02-16T00:03:16.927Z,7.70
2023-02-16T00:05:52.666Z,9.10
2023-02-16T00:08:32.103Z,8.00
2023-02-16T00:11:23.642Z,10.40
2023-02-16T00:14:00.609Z,8.23
2023-02-16T00:16:39.938Z,9.27
2023-02-16T00:19:21.787Z,8.77
2023-02-16T00:22:07.661Z,11.83
2023-02-16T00:24:37.716Z,11.70
2023-02-16T00:27:13.981Z,9.07
2023-02-16T00:29:45.740Z,8.27
2023-02-16T00:32:14.647Z,11.07
2023-02-16T00:34:49.953Z,11.43
2023-02-16T00:37:20.433Z,12.70
2023-02-16T00:39:52.791Z,8.23
2023-02-16T00:42:29.397Z,8.60
2023-02-16T00:45:04.835Z,11.93
2023-02-16T00:47:38.139Z,8.53
2023-02-16T00:50:18.218Z,8.97
2023-02-16T00:52:53.927Z,7.07
2023-02-16T00:55:31.692Z,8.97
2023-02-16T00:58:10.244Z,6.50
2023-02-16T01:00:43.143Z,4.33
2023-02-16T01:03:18.107Z,8.83
2023-02-16T01:06:11.684Z,10.07
2023-02-16T01:09:25.348Z,7.00
2023-02-16T01:11:55.993Z,4.37
2023-02-16T01:14:30.782Z,10.13
2023-02-16T01:17:08.075Z,7.33
2023-02-16T01:19:44.668Z,7.97
2023-02-16T01:22:33.444Z,8.73
2023-02-16T01:25:07.730Z,8.47
2023-02-16T01:27:38.636Z,8.50
2023-02-16T01:30:09.499Z,9.20
2023-02-16T01:32:51.771Z,7.83
2023-02-16T01:35:23.038Z,11.93
2023-02-16T01:37:53.925Z,10.77
2023-02-16T01:40:43.897Z,8.63
2023-02-16T01:43:43.751Z,8.37
2023-02-16T01:46:17.434Z,9.90
2023-02-16T01:48:53.660Z,8.90
2023-02-16T01:51:30.562Z,9.40
2023-02-16T01:54:14.397Z,12.57
2023-02-16T01:57:12.419Z,11.57
2023-02-16T02:00:15.618Z,11.67
2023-02-16T02:03:15.690Z,9.27
2023-02-16T02:05:43.754Z,9.30
2023-02-16T02:08:20.807Z,8.63
2023-02-16T02:11:08.215Z,7.30
2023-02-16T02:13:44.398Z,9.60
2023-02-16T02:17:09.254Z,10.30
2023-02-16T02:19:52.762Z,10.10
2023-02-16T02:23:14.860Z,9.80
2023-02-16T02:26:11.743Z,8.40
2023-02-16T02:28:55.879Z,12.80
2023-02-16T02:31:33.785Z,9.93
2023-02-16T02:34:13.049Z,11.33
2023-02-16T02:36:50.658Z,10.67
2023-02-16T02:39:32.565Z,10.70
2023-02-16T02:42:08.876Z,10.10
2023-02-16T02:44:43.601Z,8.23
2023-02-16T02:47:42.296Z,10.37
2023-02-16T02:51:03.304Z,9.37
2023-02-16T02:53:31.694Z,10.17
2023-02-16T02:56:20.228Z,16.60
2023-02-16T02:59:08.747Z,30.23
2023-02-16T03:01:40.324Z,10.00
2023-02-16T03:04:12.294Z,10.17
2023-02-16T03:06:44.791Z,14.00
2023-02-16T03:09:15.048Z,12.83
2023-02-16T03:12:13.434Z,13.40
2023-02-16T03:14:46.893Z,14.40
2023-02-16T03:17:36.663Z,11.17
2023-02-16T03:20:32.646Z,13.50
2023-02-16T03:23:19.813Z,14.00
2023-02-16T03:26:05.482Z,10.23
2023-02-16T03:28:53.686Z,15.57
2023-02-16T03:31:25.019Z,10.07
2023-02-16T03:33:56.879Z,15.63
2023-02-16T03:36:26.756Z,12.73
2023-02-16T03:38:57.986Z,16.30
2023-02-16T03:41:41.903Z,13.60
2023-02-16T03:44:12.058Z,11.47
2023-02-16T03:46:49.550Z,11.57
2023-02-16T03:49:19.932Z,12.63
2023-02-16T03:51:49.021Z,12.03
2023-02-16T03:54:19.034Z,14.83
2023-02-16T03:56:47.081Z,13.23
2023-02-16T03:59:15.033Z,12.43
2023-02-16T04:01:43.098Z,19.97
2023-02-16T04:04:11.224Z,9.90
2023-02-16T04:06:40.715Z,13.27
2023-02-16T04:09:08.897Z,11.37
2023-02-16T04:12:01.127Z,11.13
2023-02-16T04:14:37.214Z,17.27
2023-02-16T04:17:05.616Z,11.63
2023-02-16T04:19:34.739Z,13.60
2023-02-16T04:22:06.648Z,10.90
2023-02-16T04:24:34.601Z,13.10
2023-02-16T04:27:19.650Z,12.00
2023-02-16T04:29:47.635Z,12.80
2023-02-16T04:32:24.850Z,15.53
2023-02-16T04:35:02.319Z,10.67
2023-02-16T04:37:35.648Z,8.83
2023-02-16T04:40:06.802Z,10.40
2023-02-16T04:42:36.904Z,9.57
2023-02-16T04:45:09.636Z,10.77
2023-02-16T04:47:39.088Z,20.60
2023-02-16T04:50:10.635Z,11.03
2023-02-16T04:52:40.404Z,7.97
2023-02-16T04:55:10.705Z,10.57
2023-02-16T04:57:43.905Z,12.07
2023-02-16T05:00:13.162Z,10.03
2023-02-16T05:02:41.271Z,9.63
2023-02-16T05:05:09.751Z,9.37
2023-02-16T05:07:39.067Z,11.70
2023-02-16T05:10:07.809Z,15.80
2023-02-16T05:12:56.308Z,12.93
2023-02-16T05:15:34.387Z,10.20
2023-02-16T05:18:02.367Z,11.60
2023-02-16T05:20:44.388Z,13.70
2023-02-16T05:23:13.753Z,8.67
2023-02-16T05:25:42.172Z,10.00
2023-02-16T05:28:24.156Z,10.57
2023-02-16T05:30:52.196Z,10.13
2023-02-16T05:33:20.142Z,8.30
2023-02-16T05:35:48.223Z,11.90
2023-02-16T05:38:17.528Z,14.33
2023-02-16T05:40:45.443Z,11.30
2023-02-16T05:43:27.218Z,22.40
2023-02-16T05:45:55.212Z,9.87
2023-02-16T05:48:23.221Z,8.50
2023-02-16T05:50:55.585Z,9.47
2023-02-16T05:53:24.970Z,11.27
2023-02-16T05:55:59.056Z,13.77
2023-02-16T05:58:27.095Z,13.83
2023-02-16T06:00:55.051Z,8.43
2023-02-16T06:03:28.401Z,9.80
2023-02-16T06:05:57.299Z,14.03
2023-02-16T06:08:27.415Z,8.50
2023-02-16T06:10:55.958Z,9.27
2023-02-16T06:13:24.667Z,11.03
2023-02-16T06:16:00.596Z,10.90
2023-02-16T06:18:30.613Z,13.30
2023-02-16T06:21:00.607Z,13.70
2023-02-16T06:23:37.066Z,9.17
2023-02-16T06:26:05.317Z,12.10
2023-02-16T06:28:59.333Z,12.13
2023-02-16T06:31:27.909Z,10.57
2023-02-16T06:33:57.812Z,11.47
2023-02-16T06:36:26.978Z,10.60
2023-02-16T06:38:56.356Z,10.77
2023-02-16T06:41:37.845Z,10.00
2023-02-16T06:44:08.527Z,11.87
2023-02-16T06:46:36.774Z,12.47
2023-02-16T06:49:05.250Z,14.60
2023-02-16T06:51:33.653Z,8.60
2023-02-16T06:54:03.030Z,16.00
2023-02-16T06:56:33.041Z,9.83
2023-02-16T06:59:03.323Z,11.83
2023-02-16T07:01:31.469Z,11.17
2023-02-16T07:04:09.024Z,10.37
2023-02-16T07:06:36.973Z,9.80
2023-02-16T07:09:13.375Z,10.67
2023-02-16T07:11:41.556Z,8.97
2023-02-16T07:14:09.538Z,10.33
2023-02-16T07:16:37.530Z,8.93
2023-02-16T07:19:32.348Z,8.73
2023-02-16T07:22:02.892Z,10.40
2023-02-16T07:24:32.286Z,11.43
2023-02-16T07:27:08.700Z,9.77
2023-02-16T07:29:36.950Z,12.83
2023-02-16T07:32:08.200Z,10.63
2023-02-16T07:34:50.224Z,10.87
2023-02-16T07:37:18.797Z,12.60
2023-02-16T07:40:02.441Z,13.33
2023-02-16T07:42:32.198Z,9.23
2023-02-16T07:45:01.120Z,10.33
2023-02-16T07:47:45.499Z,9.40
2023-02-16T07:50:13.525Z,11.63
2023-02-16T07:52:41.887Z,9.40
2023-02-16T07:55:12.014Z,11.87
2023-02-16T07:57:57.888Z,9.03
2023-02-16T08:00:48.649Z,12.63
2023-02-16T08:03:16.739Z,13.53
2023-02-16T08:05:44.799Z,11.13
2023-02-16T08:08:21.716Z,15.10
2023-02-16T08:10:51.025Z,9.53
2023-02-16T08:13:19.006Z,9.30
2023-02-16T08:16:01.126Z,11.00
2023-02-16T08:18:29.134Z,10.43
2023-02-16T08:21:04.273Z,10.83
2023-02-16T08:23:35.681Z,10.60
2023-02-16T08:26:10.963Z,17.37
2023-02-16T08:28:39.228Z,8.70
2023-02-16T08:31:07.400Z,9.97
2023-02-16T08:33:42.300Z,10.40
2023-02-16T08:36:24.524Z,10.57
2023-02-16T08:39:07.328Z,11.47
2023-02-16T08:41:50.814Z,12.23
2023-02-16T08:44:20.544Z,14.03
2023-02-16T08:46:49.750Z,10.67
2023-02-16T08:49:34.851Z,10.03
2023-02-16T08:52:04.199Z,10.57
2023-02-16T08:54:33.399Z,12.27
2023-02-16T08:57:03.939Z,12.13
2023-02-16T08:59:32.748Z,11.87
2023-02-16T09:02:01.526Z,12.17
2023-02-16T09:04:30.187Z,11.33
2023-02-16T09:07:01.129Z,10.33
2023-02-16T09:09:29.660Z,12.37
2023-02-16T09:11:58.074Z,12.53
2023-02-16T09:14:27.931Z,12.33
2023-02-16T09:16:55.970Z,10.97
2023-02-16T09:19:24.638Z,10.77
2023-02-16T09:21:56.220Z,10.87
2023-02-16T09:24:24.358Z,12.23
2023-02-16T09:26:52.298Z,13.70
2023-02-16T09:29:21.221Z,9.40
2023-02-16T09:31:50.626Z,8.97
2023-02-16T09:34:21.138Z,9.03
2023-02-16T09:36:58.805Z,13.03
2023-02-16T09:39:49.524Z,10.93
2023-02-16T09:42:51.258Z,11.43
2023-02-16T09:45:22.539Z,12.47
2023-02-16T09:47:54.400Z,11.50
2023-02-16T09:50:50.396Z,9.70
2023-02-16T09:53:25.380Z,8.63
2023-02-16T09:56:03.098Z,8.00
2023-02-16T09:58:40.325Z,13.30
2023-02-16T10:01:18.328Z,9.97
2023-02-16T10:04:05.672Z,11.57
2023-02-16T10:06:46.776Z,13.10
2023-02-16T10:09:20.029Z,9.50
2023-02-16T10:11:51.806Z,11.80
2023-02-16T10:14:30.880Z,11.80
2023-02-16T10:17:14.038Z,11.20
2023-02-16T10:19:50.077Z,6.80
2023-02-16T10:22:33.538Z,11.60
2023-02-16T10:25:06.503Z,12.10
2023-02-16T10:27:39.538Z,11.93
2023-02-16T10:30:16.658Z,12.67
2023-02-16T10:33:08.181Z,12.67
2023-02-16T10:35:46.572Z,12.17
2023-02-16T10:38:22.572Z,11.93
2023-02-16T10:40:57.945Z,11.90
2023-02-16T10:43:58.857Z,11.77
2023-02-16T10:46:32.239Z,12.90
2023-02-16T10:49:02.800Z,12.10
2023-02-16T10:51:41.704Z,12.13
2023-02-16T10:54:17.153Z,14.13
2023-02-16T10:56:54.207Z,13.73
2023-02-16T10:59:35.703Z,14.00
2023-02-16T11:02:18.900Z,12.47
2023-02-16T11:04:49.069Z,13.27
2023-02-16T11:07:20.907Z,13.37
2023-02-16T11:09:51.366Z,14.97
2023-02-16T11:12:27.988Z,13.63
2023-02-16T11:14:59.650Z,12.23
2023-02-16T11:17:28.319Z,12.63
2023-02-16T11:20:01.923Z,13.93
2023-02-16T11:22:35.563Z,14.67
2023-02-16T11:25:24.546Z,12.10
2023-02-16T11:28:01.947Z,11.77
2023-02-16T11:30:33.904Z,13.57
2023-02-16T11:33:04.523Z,13.57
2023-02-16T11:35:42.029Z,14.70
2023-02-16T11:38:29.224Z,13.90
2023-02-16T11:41:06.836Z,13.57
2023-02-16T11:43:40.013Z,13.47
2023-02-16T11:46:24.170Z,12.53
2023-02-16T11:48:52.584Z,13.55
2023-02-16T11:51:42.419Z,13.80
2023-02-16T11:54:18.488Z,17.87
2023-02-16T11:57:03.473Z,16.60
2023-02-16T11:59:36.364Z,12.43
2023-02-16T12:02:28.596Z,13.97
2023-02-16T12:05:24.514Z,12.32
2023-02-16T12:08:22.175Z,10.13
2023-02-16T12:11:32.490Z,12.73
2023-02-16T12:14:22.321Z,13.27
2023-02-16T12:16:59.740Z,11.20
2023-02-16T12:19:38.318Z,14.63
2023-02-16T12:22:17.499Z,14.27
2023-02-16T12:24:55.809Z,12.87
2023-02-16T12:27:38.617Z,13.73
2023-02-16T12:30:21.089Z,13.57
2023-02-16T12:32:59.335Z,13.75
2023-02-16T12:36:07.115Z,12.90
2023-02-16T12:38:47.518Z,14.00
2023-02-16T12:41:27.623Z,14.43
2023-02-16T12:44:03.405Z,11.73
2023-02-16T12:46:36.874Z,12.30
2023-02-16T12:49:24.367Z,14.57
2023-02-16T12:51:59.383Z,16.48
2023-02-16T12:54:31.188Z,15.13
2023-02-16T12:57:03.003Z,15.23
2023-02-16T12:59:39.847Z,12.07
2023-02-16T13:02:16.212Z,14.75
2023-02-16T13:04:50.333Z,14.45
2023-02-16T13:07:26.079Z,14.88
2023-02-16T13:10:00.925Z,15.10
2023-02-16T13:12:33.325Z,15.77
2023-02-16T13:15:18.934Z,14.35
2023-02-16T13:17:50.713Z,16.10
2023-02-16T13:20:21.784Z,15.90
2023-02-16T13:23:25.816Z,18.60
2023-02-16T13:26:11.189Z,17.10
2023-02-16T13:28:56.795Z,16.33
2023-02-16T13:31:45.112Z,17.15
2023-02-16T13:34:34.182Z,16.90
2023-02-16T13:37:19.111Z,16.50
2023-02-16T13:40:23.095Z,17.20
2023-02-16T13:43:17.050Z,14.93
2023-02-16T13:45:47.998Z,19.13
2023-02-16T13:48:24.510Z,13.95
2023-02-16T13:50:58.569Z,13.48
2023-02-16T13:53:37.900Z,20.20
2023-02-16T13:56:23.232Z,15.20
2023-02-16T13:58:51.973Z,14.57
2023-02-16T14:01:42.960Z,17.38
2023-02-16T14:04:58.428Z,14.73
2023-02-16T14:07:38.270Z,15.07
2023-02-16T14:10:07.805Z,12.90
2023-02-16T14:12:41.873Z,14.85
2023-02-16T14:15:20.491Z,14.05
2023-02-16T14:17:48.484Z,13.13
2023-02-16T14:20:31.966Z,14.65
2023-02-16T14:23:01.521Z,12.77
2023-02-16T14:25:36.458Z,14.27
2023-02-16T14:28:07.720Z,17.15
2023-02-16T14:30:38.057Z,15.63
2023-02-16T14:33:20.292Z,15.50
2023-02-16T14:36:08.962Z,18.73
2023-02-16T14:38:43.646Z,17.30
2023-02-16T14:41:24.781Z,15.93
2023-02-16T14:43:56.139Z,15.25
2023-02-16T14:46:43.466Z,16.42
2023-02-16T14:49:34.593Z,17.00
2023-02-16T14:52:41.668Z,17.45
2023-02-16T14:55:43.523Z,17.48
2023-02-16T14:58:23.897Z,17.80
2023-02-16T15:01:05.196Z,16.30
2023-02-16T15:03:46.347Z,19.23
2023-02-16T15:06:30.543Z,19.75
2023-02-16T15:09:24.342Z,17.40
2023-02-16T15:12:14.123Z,17.50
2023-02-16T15:14:45.437Z,15.20
2023-02-16T15:17:26.984Z,19.33
2023-02-16T15:19:56.962Z,15.50
2023-02-16T15:22:27.167Z,22.25
2023-02-16T15:25:04.000Z,16.52
2023-02-16T15:27:33.938Z,19.33
2023-02-16T15:30:21.516Z,17.75
2023-02-16T15:32:57.488Z,15.65
2023-02-16T15:35:29.182Z,18.38
2023-02-16T15:38:53.931Z,17.70
2023-02-16T15:41:28.833Z,19.63
2023-02-16T15:43:59.728Z,21.17
2023-02-16T15:46:31.635Z,18.33
2023-02-16T15:49:00.097Z,18.83
2023-02-16T15:51:31.555Z,17.92
2023-02-16T15:54:01.964Z,15.98
2023-02-16T15:56:39.507Z,18.15
2023-02-16T15:59:28.385Z,15.52
2023-02-16T16:02:01.448Z,16.80
2023-02-16T16:04:31.274Z,18.38
2023-02-16T16:07:00.210Z,15.15
2023-02-16T16:09:30.106Z,18.00
2023-02-16T16:11:59.681Z,15.88
2023-02-16T16:14:30.175Z,14.88
2023-02-16T16:17:00.720Z,18.23
2023-02-16T16:19:35.853Z,15.52
2023-02-16T16:22:30.337Z,17.15
2023-02-16T16:25:00.395Z,16.83
2023-02-16T16:27:36.522Z,26.05
2023-02-16T16:30:29.819Z,16.95
2023-02-16T16:33:02.885Z,17.02
2023-02-16T16:35:42.739Z,15.60
2023-02-16T16:38:26.449Z,16.52
2023-02-16T16:40:58.387Z,26.20
2023-02-16T16:43:29.729Z,17.23
2023-02-16T16:46:13.722Z,17.38
2023-02-16T16:49:03.291Z,19.25
2023-02-16T16:51:40.394Z,19.95
2023-02-16T16:54:12.539Z,16.90
2023-02-16T16:56:42.797Z,18.52
2023-02-16T16:59:17.661Z,20.02
2023-02-16T17:01:49.911Z,20.65
2023-02-16T17:04:18.055Z,16.55
2023-02-16T17:06:46.088Z,28.50
2023-02-16T17:09:42.579Z,21.55
2023-02-16T17:12:24.717Z,30.85
2023-02-16T17:15:30.159Z,18.02
2023-02-16T17:17:59.845Z,20.63
2023-02-16T17:20:27.925Z,23.98
2023-02-16T17:23:08.107Z,23.35
2023-02-16T17:25:38.083Z,18.77
2023-02-16T17:28:06.922Z,26.05
2023-02-16T17:30:35.724Z,23.35
2023-02-16T17:33:09.538Z,18.27
2023-02-16T17:35:39.941Z,21.25
2023-02-16T17:38:09.361Z,18.50
2023-02-16T17:40:37.468Z,17.98
2023-02-16T17:43:11.929Z,18.10
2023-02-16T17:45:42.753Z,19.70
2023-02-16T17:48:20.078Z,16.10
2023-02-16T17:50:49.222Z,17.08
2023-02-16T17:53:19.727Z,19.15
2023-02-16T17:55:48.400Z,20.13
2023-02-16T17:58:30.501Z,21.48
2023-02-16T18:01:00.493Z,23.40
2023-02-16T18:03:32.118Z,18.77
2023-02-16T18:06:04.597Z,19.75
2023-02-16T18:08:32.895Z,17.70
2023-02-16T18:11:02.858Z,20.85
2023-02-16T18:13:31.872Z,17.55
2023-02-16T18:16:03.596Z,20.90
2023-02-16T18:18:34.779Z,18.55
2023-02-16T18:21:12.511Z,27.42
2023-02-16T18:23:41.032Z,20.52
2023-02-16T18:26:18.346Z,22.33
2023-02-16T18:28:46.609Z,22.55
2023-02-16T18:31:15.340Z,25.45
2023-02-16T18:33:44.753Z,23.10
2023-02-16T18:36:12.742Z,19.23
2023-02-16T18:38:40.725Z,22.55
2023-02-16T18:41:13.719Z,21.38
2023-02-16T18:43:46.846Z,22.60
2023-02-16T18:46:15.876Z,21.67
2023-02-16T18:48:45.647Z,21.85
2023-02-16T18:51:14.465Z,22.27
2023-02-16T18:54:00.836Z,19.83
2023-02-16T18:56:28.884Z,20.33
2023-02-16T18:58:56.864Z,18.92
2023-02-16T19:01:30.313Z,20.38
2023-02-16T19:04:00.480Z,20.75
2023-02-16T19:06:50.587Z,23.67
2023-02-16T19:09:26.262Z,18.60
2023-02-16T19:12:01.479Z,23.45
2023-02-16T19:14:29.483Z,22.42
2023-02-16T19:17:01.700Z,20.10
2023-02-16T19:19:31.801Z,19.38
2023-02-16T19:21:59.805Z,19.60
2023-02-16T19:24:28.963Z,19.45
2023-02-16T19:26:56.976Z,20.23
2023-02-16T19:29:24.961Z,17.98
2023-02-16T19:31:53.042Z,19.40
2023-02-16T19:34:21.149Z,20.33
2023-02-16T19:36:50.621Z,22.60
2023-02-16T19:39:34.122Z,19.27
2023-02-16T19:42:28.997Z,17.38
2023-02-16T19:44:57.180Z,19.25
2023-02-16T19:47:25.142Z,21.38
2023-02-16T19:49:56.314Z,18.30
2023-02-16T19:52:26.055Z,18.10
2023-02-16T19:54:54.036Z,16.05
2023-02-16T19:57:56.715Z,15.23
2023-02-16T20:00:24.695Z,17.90
2023-02-16T20:02:53.485Z,19.30
2023-02-16T20:05:21.571Z,18.35
2023-02-16T20:07:50.920Z,18.05
2023-02-16T20:10:19.016Z,17.70
2023-02-16T20:13:00.954Z,20.50
2023-02-16T20:15:30.966Z,16.35
2023-02-16T20:18:01.450Z,16.40
2023-02-16T20:20:31.780Z,16.92
2023-02-16T20:23:02.573Z,18.17
2023-02-16T20:25:30.536Z,16.63
2023-02-16T20:27:59.070Z,16.80
2023-02-16T20:30:27.537Z,19.90
2023-02-16T20:32:55.500Z,17.60
2023-02-16T20:35:23.709Z,17.00
2023-02-16T20:37:58.574Z,20.33
2023-02-16T20:40:28.023Z,20.90
2023-02-16T20:42:56.338Z,15.43
2023-02-16T20:45:25.686Z,18.10
2023-02-16T20:47:53.700Z,18.05
2023-02-16T20:50:21.799Z,15.82
2023-02-16T20:52:50.967Z,21.52
2023-02-16T20:55:19.023Z,17.98
2023-02-16T20:57:48.348Z,15.55
2023-02-16T21:00:24.115Z,16.30
2023-02-16T21:02:52.941Z,18.02
2023-02-16T21:05:22.435Z,19.88
2023-02-16T21:07:50.468Z,19.55
2023-02-16T21:10:18.634Z,21.25
2023-02-16T21:12:54.931Z,16.17
2023-02-16T21:15:22.939Z,16.02
2023-02-16T21:17:50.962Z,15.68
2023-02-16T21:20:37.832Z,15.88
2023-02-16T21:23:19.616Z,16.80
2023-02-16T21:25:59.646Z,16.50
2023-02-16T21:28:49.309Z,14.70
2023-02-16T21:31:21.724Z,17.40
2023-02-16T21:34:04.374Z,18.40
2023-02-16T21:36:39.333Z,16.23
2023-02-16T21:39:43.686Z,16.92
2023-02-16T21:42:10.869Z,17.10
2023-02-16T21:44:44.985Z,17.70
2023-02-16T21:47:37.486Z,16.17
2023-02-16T21:50:05.833Z,18.05
2023-02-16T21:52:33.839Z,15.95
2023-02-16T21:55:19.425Z,15.10
2023-02-16T21:57:47.501Z,18.02
2023-02-16T22:00:17.892Z,15.82
2023-02-16T22:02:45.877Z,17.77
2023-02-16T22:05:14.174Z,16.50
2023-02-16T22:07:42.277Z,15.52
2023-02-16T22:10:11.219Z,16.17
2023-02-16T22:12:41.316Z,13.65
2023-02-16T22:15:09.613Z,14.65
2023-02-16T22:17:39.592Z,15.10
2023-02-16T22:20:09.141Z,14.93
2023-02-16T22:23:22.779Z,15.40
2023-02-16T22:25:50.763Z,14.27
2023-02-16T22:28:26.981Z,13.90
2023-02-16T22:30:55.416Z,18.63
2023-02-16T22:33:31.194Z,16.13
2023-02-16T22:36:06.116Z,15.47
2023-02-16T22:38:34.249Z,12.73
2023-02-16T22:41:05.977Z,13.03
2023-02-16T22:43:34.025Z,14.93
2023-02-16T22:46:06.461Z,14.87
2023-02-16T22:48:37.394Z,17.13
2023-02-16T22:51:15.863Z,15.63
2023-02-16T22:53:50.174Z,11.70
2023-02-16T22:56:20.285Z,15.75
2023-02-16T22:59:06.751Z,13.77
2023-02-16T23:01:34.920Z,13.00
2023-02-16T23:04:04.685Z,11.77
2023-02-16T23:10:13.530Z,12.40
2023-02-16T23:12:41.469Z,13.17
2023-02-16T23:15:22.925Z,11.57
2023-02-16T23:18:03.342Z,15.17
2023-02-16T23:20:37.001Z,14.57
2023-02-16T23:23:14.370Z,11.93
2023-02-16T23:25:46.345Z,13.07
2023-02-16T23:28:14.734Z,13.45
2023-02-16T23:30:45.211Z,13.30
2023-02-16T23:33:13.982Z,13.50
2023-02-16T23:35:45.519Z,15.00
2023-02-16T23:38:19.655Z,17.15
2023-02-16T23:41:12.971Z,12.82
2023-02-16T23:43:42.022Z,12.33
2023-02-16T23:46:17.521Z,15.63
2023-02-16T23:49:22.014Z,14.90
2023-02-16T23:52:09.412Z,15.68
2023-02-16T23:54:42.077Z,15.60
2023-02-16T23:57:47.045Z,13.90
